createdAt,value
2022-12-17T00:00:08.993Z,99624.44
2022-12-17T00:07:05.826Z,99612.34
2022-12-17T00:10:27.209Z,99602.75
2022-12-17T00:13:48.539Z,99575.06
2022-12-17T00:17:09.217Z,99557.06
2022-12-17T00:20:30.498Z,99553.63
2022-12-17T00:23:51.427Z,99566.66
2022-12-17T00:27:12.177Z,99577.94
2022-12-17T00:30:32.995Z,99599.59
2022-12-17T00:33:53.801Z,99636.16
2022-12-17T00:37:14.659Z,99640.50
2022-12-17T00:40:36.330Z,99652.72
2022-12-17T00:43:57.095Z,99671.03
2022-12-17T00:47:17.871Z,99680.53
2022-12-17T00:50:38.459Z,99696.25
2022-12-17T00:53:59.205Z,99710.13
2022-12-17T00:57:19.967Z,99731.78
2022-12-17T01:00:40.670Z,99721.47
2022-12-17T01:04:01.361Z,99725.91
2022-12-17T01:07:21.993Z,99718.94
2022-12-17T01:10:42.788Z,99730.22
2022-12-17T01:14:03.879Z,99746.75
2022-12-17T01:17:24.893Z,99749.41
2022-12-17T01:20:46.007Z,99757.97
2022-12-17T01:24:06.800Z,99771.94
2022-12-17T01:27:28.133Z,99771.13
2022-12-17T01:30:49.051Z,99773.72
2022-12-17T01:34:09.810Z,99769.44
2022-12-17T01:37:30.539Z,99767.72
2022-12-17T01:40:51.506Z,99772.84
2022-12-17T01:44:12.153Z,99773.72
2022-12-17T01:47:32.941Z,99772.16
2022-12-17T01:50:57.721Z,99767.91
2022-12-17T01:54:33.215Z,99769.59
2022-12-17T01:57:54.440Z,99780.94
2022-12-17T02:01:15.318Z,99781.81
2022-12-17T02:04:36.328Z,99792.38
2022-12-17T02:08:40.465Z,99795.06
2022-12-17T02:12:26.847Z,99811.59
2022-12-17T02:15:55.664Z,99815.91
2022-12-17T02:19:27.420Z,99811.69
2022-12-17T02:23:10.163Z,99809.09
2022-12-17T02:26:36.824Z,99814.25
2022-12-17T02:30:02.826Z,99823.84
2022-12-17T02:33:23.596Z,99837.78
2022-12-17T02:36:44.152Z,99841.16
2022-12-17T02:40:05.440Z,99850.72
2022-12-17T02:43:29.192Z,99852.50
2022-12-17T02:46:49.980Z,99856.03
2022-12-17T02:50:11.219Z,99872.41
2022-12-17T02:53:32.000Z,99879.44
2022-12-17T03:01:03.787Z,99881.13
2022-12-17T03:04:24.584Z,99886.34
2022-12-17T03:07:45.261Z,99878.59
2022-12-17T03:11:06.040Z,99883.81
2022-12-17T03:18:33.740Z,99902.87
2022-12-17T03:21:54.382Z,99920.31
2022-12-17T03:25:15.054Z,99911.59
2022-12-17T03:28:35.672Z,99918.56
2022-12-17T03:31:56.383Z,99915.09
2022-12-17T03:35:16.983Z,99915.19
2022-12-17T03:38:37.459Z,99915.97
2022-12-17T03:41:58.607Z,99923.84
2022-12-17T03:45:19.187Z,99921.34
2022-12-17T03:48:40.048Z,99929.16
2022-12-17T03:52:00.709Z,99927.38
2022-12-17T03:55:21.251Z,99929.16
2022-12-17T03:58:41.887Z,99924.91
2022-12-17T04:02:02.792Z,99924.97
2022-12-17T04:05:26.235Z,99922.38
2022-12-17T04:08:47.357Z,99914.59
2022-12-17T04:12:08.194Z,99919.88
2022-12-17T04:15:29.152Z,99917.25
2022-12-17T04:18:50.434Z,99925.16
2022-12-17T04:22:11.029Z,99926.00
2022-12-17T04:25:31.663Z,99933.72
2022-12-17T04:28:57.646Z,99953.78
2022-12-17T04:50:10.361Z,99996.31
2022-12-17T04:53:31.238Z,99990.31
2022-12-17T04:56:52.051Z,100012.84
2022-12-17T05:00:12.640Z,100025.00
2022-12-17T05:07:30.276Z,100039.75
2022-12-17T05:10:50.924Z,100047.59
2022-12-17T05:14:11.697Z,100051.09
2022-12-17T05:17:32.384Z,100070.13
2022-12-17T05:20:53.092Z,100066.63
2022-12-17T05:24:13.831Z,100073.59
2022-12-17T05:27:34.545Z,100077.09
2022-12-17T05:30:55.295Z,100080.59
2022-12-17T05:34:15.926Z,100089.22
2022-12-17T05:37:36.600Z,100086.62
2022-12-17T05:40:57.305Z,100101.34
2022-12-17T05:44:27.230Z,100104.75
2022-12-17T05:47:47.891Z,100111.78
2022-12-17T05:51:09.841Z,100121.41
2022-12-17T05:54:31.105Z,100123.09
2022-12-17T06:01:58.905Z,100140.47
2022-12-17T06:05:19.679Z,100150.94
2022-12-17T06:08:40.277Z,100150.88
2022-12-17T06:12:03.185Z,100157.00
2022-12-17T06:19:23.936Z,100175.19
2022-12-17T06:22:44.550Z,100183.84
2022-12-17T06:26:05.263Z,100187.31
2022-12-17T06:29:25.894Z,100192.50
2022-12-17T06:32:46.620Z,100203.78
2022-12-17T06:36:07.465Z,100214.19
2022-12-17T06:39:46.642Z,100219.38
2022-12-17T06:43:12.475Z,100222.81
2022-12-17T06:46:33.221Z,100220.22
2022-12-17T06:49:59.532Z,100221.97
2022-12-17T06:53:24.645Z,100227.13
2022-12-17T06:56:45.807Z,100236.72
2022-12-17T07:00:06.482Z,100241.03
2022-12-17T07:03:30.500Z,100242.75
2022-12-17T07:06:51.704Z,100249.63
2022-12-17T07:10:14.499Z,100255.69
2022-12-17T07:13:35.575Z,100257.28
2022-12-17T07:16:56.433Z,100255.53
2022-12-17T07:20:17.113Z,100264.16
2022-12-17T07:23:38.112Z,100277.06
2022-12-17T07:26:59.033Z,100281.31
2022-12-17T07:30:20.052Z,100288.28
2022-12-17T07:33:40.841Z,100283.06
2022-12-17T07:37:01.445Z,100287.25
2022-12-17T07:40:23.245Z,100286.41
2022-12-17T07:43:47.023Z,100299.31
2022-12-17T07:47:12.068Z,100307.97
2022-12-17T07:50:33.254Z,100317.47
2022-12-17T07:53:54.205Z,100314.87
2022-12-17T07:57:14.800Z,100321.87
2022-12-17T08:00:35.440Z,100314.09
2022-12-17T08:03:56.124Z,100317.34
2022-12-17T08:07:16.982Z,100338.06
2022-12-17T08:10:37.538Z,100350.25
2022-12-17T08:13:58.280Z,100349.22
2022-12-17T08:17:18.862Z,100363.81
2022-12-17T08:20:39.510Z,100362.91
2022-12-17T08:24:00.072Z,100368.00
2022-12-17T08:27:20.659Z,100377.62
2022-12-17T08:30:41.619Z,100380.00
2022-12-17T08:34:07.565Z,100377.34
2022-12-17T08:37:28.584Z,100387.50
2022-12-17T08:40:49.254Z,100383.41
2022-12-17T08:44:09.831Z,100385.06
2022-12-17T08:47:30.479Z,100391.97
2022-12-17T08:50:51.687Z,100415.78
2022-12-17T08:54:12.081Z,100421.69
2022-12-17T08:57:32.765Z,100433.91
2022-12-17T09:00:53.577Z,100433.91
2022-12-17T09:04:18.259Z,100449.59
2022-12-17T09:07:39.075Z,100447.37
2022-12-17T09:11:07.355Z,100446.28
2022-12-17T09:14:28.061Z,100441.84
2022-12-17T09:17:48.878Z,100446.00
2022-12-17T09:21:14.175Z,100445.09
2022-12-17T09:24:35.421Z,100437.25
2022-12-17T09:27:56.061Z,100430.31
2022-12-17T09:31:19.821Z,100459.12
2022-12-17T09:34:40.333Z,100479.41
2022-12-17T09:38:01.206Z,100475.25
2022-12-17T09:41:35.079Z,100479.16
2022-12-17T09:45:01.668Z,100492.59
2022-12-17T09:49:07.527Z,100495.91
2022-12-17T09:52:58.359Z,100491.81
2022-12-17T09:56:18.987Z,100499.66
2022-12-17T09:59:48.581Z,100506.47
2022-12-17T10:03:09.328Z,100520.66
2022-12-17T10:06:35.536Z,100525.09
2022-12-17T10:09:56.246Z,100518.06
2022-12-17T10:13:17.752Z,100524.16
2022-12-17T10:16:49.059Z,100531.09
2022-12-17T10:20:14.205Z,100529.25
2022-12-17T10:23:45.926Z,100538.37
2022-12-17T10:27:08.098Z,100543.22
2022-12-17T10:30:34.712Z,100555.53
2022-12-17T10:33:59.400Z,100556.41
2022-12-17T10:37:20.930Z,100559.00
2022-12-17T10:40:47.642Z,100566.16
2022-12-17T10:44:08.431Z,100567.13
2022-12-17T10:47:37.230Z,100566.06
2022-12-17T10:51:00.336Z,100568.53
2022-12-17T10:54:29.192Z,100567.00
2022-12-17T10:57:57.719Z,100566.09
2022-12-17T11:01:23.180Z,100567.56
2022-12-17T11:04:52.067Z,100573.56
2022-12-17T11:08:26.279Z,100576.91
2022-12-17T11:11:48.419Z,100569.84
2022-12-17T11:15:13.079Z,100563.63
2022-12-17T11:18:40.866Z,100568.22
2022-12-17T11:22:26.347Z,100578.22
2022-12-17T11:25:56.745Z,100582.50
2022-12-17T11:29:18.536Z,100579.69
2022-12-17T11:33:05.033Z,100575.31
2022-12-17T11:36:43.342Z,100569.13
2022-12-17T11:40:17.580Z,100560.81
2022-12-17T11:43:56.699Z,100576.03
2022-12-17T11:47:41.286Z,100579.00
2022-12-17T11:51:20.943Z,100573.50
2022-12-17T11:54:53.178Z,100577.81
2022-12-17T11:58:25.297Z,100574.53
2022-12-17T12:02:08.910Z,100572.78
2022-12-17T12:05:40.920Z,100580.69
2022-12-17T12:09:16.710Z,100599.69
2022-12-17T12:13:05.484Z,100599.34
2022-12-17T12:16:38.083Z,100606.69
2022-12-17T12:20:14.795Z,100605.97
2022-12-17T12:23:58.210Z,100620.47
2022-12-17T12:27:47.915Z,100623.22
2022-12-17T12:31:15.875Z,100632.81
2022-12-17T12:34:40.841Z,100631.69
2022-12-17T12:38:01.932Z,100643.84
2022-12-17T12:41:43.039Z,100641.38
2022-12-17T12:45:33.165Z,100643.50
2022-12-17T12:49:24.044Z,100661.88
2022-12-17T12:52:47.218Z,100659.41
2022-12-17T12:56:07.881Z,100663.56
2022-12-17T12:59:31.100Z,100672.25
2022-12-17T13:02:51.880Z,100665.28
2022-12-17T13:05:53.997Z,100678.34
2022-12-17T13:09:06.107Z,100680.03
2022-12-17T13:12:08.097Z,100671.81
2022-12-17T13:15:18.828Z,100682.34
2022-12-17T13:18:35.701Z,100681.41
2022-12-17T13:21:37.926Z,100689.34
2022-12-17T13:24:40.689Z,100691.16
2022-12-17T13:27:43.412Z,100697.16
2022-12-17T13:30:45.751Z,100709.66
2022-12-17T13:34:08.570Z,100714.03
2022-12-17T13:37:14.361Z,100715.00
2022-12-17T13:40:22.389Z,100723.72
2022-12-17T13:43:31.074Z,100734.28
2022-12-17T13:46:47.298Z,100744.72
2022-12-17T13:50:24.520Z,100745.75
2022-12-17T13:53:15.593Z,100750.97
2022-12-17T13:56:23.136Z,100767.50
2022-12-17T13:59:25.433Z,100773.53
2022-12-17T14:02:33.751Z,100781.53
2022-12-17T14:05:38.361Z,100785.13
2022-12-17T14:08:41.182Z,100801.69
2022-12-17T14:12:01.978Z,100811.25
2022-12-17T14:15:10.985Z,100811.41
2022-12-17T14:18:19.359Z,100809.69
2022-12-17T14:21:22.808Z,100807.94
2022-12-17T14:24:29.334Z,100821.03
2022-12-17T14:27:36.080Z,100841.19
2022-12-17T14:31:09.699Z,100833.56
2022-12-17T14:34:11.453Z,100839.72
2022-12-17T14:37:24.154Z,100842.50
2022-12-17T14:40:26.842Z,100844.28
2022-12-17T14:43:29.835Z,100846.91
2022-12-17T14:46:33.974Z,100846.97
2022-12-17T14:49:38.379Z,100860.91
2022-12-17T14:52:46.581Z,100869.78
2022-12-17T14:55:55.549Z,100877.66
2022-12-17T14:58:58.357Z,100879.53
2022-12-17T15:02:18.380Z,100879.66
2022-12-17T15:05:20.941Z,100906.75
2022-12-17T15:08:23.317Z,100911.16
2022-12-17T15:11:25.423Z,100914.66
2022-12-17T15:14:27.476Z,100903.41
2022-12-17T15:17:29.642Z,100900.88
2022-12-17T15:20:31.852Z,100908.75
2022-12-17T15:23:34.001Z,100927.91
2022-12-17T15:26:36.220Z,100939.34
2022-12-17T15:29:38.561Z,100944.66
2022-12-17T15:32:41.336Z,100941.25
2022-12-17T15:35:43.711Z,100950.88
2022-12-17T15:38:46.541Z,100962.25
2022-12-17T15:42:07.091Z,100972.72
2022-12-17T15:45:09.603Z,100966.66
2022-12-17T15:48:16.316Z,100968.38
2022-12-17T15:51:21.231Z,100971.78
2022-12-17T15:54:23.373Z,100979.59
2022-12-17T15:57:25.697Z,100983.06
2022-12-17T16:00:28.075Z,100994.41
2022-12-17T16:03:30.272Z,100999.59
2022-12-17T16:06:33.824Z,101000.47
2022-12-17T16:09:35.956Z,100999.59
2022-12-17T16:12:38.584Z,101010.88
2022-12-17T16:15:40.922Z,101010.94
2022-12-17T16:18:43.924Z,101022.22
2022-12-17T16:21:47.223Z,101024.00
2022-12-17T16:24:52.710Z,101026.63
2022-12-17T16:27:55.018Z,101034.47
2022-12-17T16:31:05.066Z,101038.81
2022-12-17T16:34:11.669Z,101039.69
2022-12-17T16:37:13.754Z,101044.94
2022-12-17T16:40:16.760Z,101054.50
2022-12-17T16:43:20.818Z,101061.50
2022-12-17T16:46:32.748Z,101053.69
2022-12-17T16:49:35.209Z,101060.63
2022-12-17T16:52:37.483Z,101068.44
2022-12-17T16:55:44.945Z,101071.06
2022-12-17T16:58:47.363Z,101076.28
2022-12-17T17:01:51.791Z,101083.16
2022-12-17T17:04:54.145Z,101087.44
2022-12-17T17:07:56.452Z,101096.12
2022-12-17T17:11:09.100Z,101096.12
2022-12-17T17:14:11.161Z,101098.72
2022-12-17T17:17:13.254Z,101100.50
2022-12-17T17:20:16.017Z,101100.50
2022-12-17T17:23:18.623Z,101097.87
2022-12-17T17:26:21.720Z,101109.09
2022-12-17T17:29:24.071Z,101106.50
2022-12-17T17:32:26.248Z,101114.28
2022-12-17T17:35:28.785Z,101117.78
2022-12-17T17:38:33.559Z,101126.53
2022-12-17T17:41:36.702Z,101117.91
2022-12-17T17:44:38.772Z,101127.44
2022-12-17T17:47:40.940Z,101134.44
2022-12-17T17:50:43.230Z,101151.81
2022-12-17T17:53:47.933Z,101155.34
2022-12-17T17:56:50.195Z,101161.47
2022-12-17T17:59:52.375Z,101163.25
2022-12-17T18:02:54.976Z,101161.53
2022-12-17T18:06:02.298Z,101163.28
2022-12-17T18:09:04.982Z,101154.66
2022-12-17T18:12:27.208Z,101158.13
2022-12-17T18:15:29.847Z,101172.00
2022-12-17T18:18:32.295Z,101178.09
2022-12-17T18:21:34.838Z,101184.19
2022-12-17T18:24:36.966Z,101197.19
2022-12-17T18:27:39.353Z,101204.09
2022-12-17T18:30:41.709Z,101205.84
2022-12-17T18:33:46.722Z,101213.66
2022-12-17T18:36:50.318Z,101218.81
2022-12-17T18:39:52.459Z,101217.94
2022-12-17T18:43:13.376Z,101221.41
2022-12-17T18:46:20.547Z,101229.19
2022-12-17T18:49:26.871Z,101229.16
2022-12-17T18:52:29.323Z,101234.34
2022-12-17T18:55:31.745Z,101235.19
2022-12-17T18:58:34.084Z,101247.25
2022-12-17T19:01:37.806Z,101246.38
2022-12-17T19:04:40.528Z,101245.50
2022-12-17T19:07:42.798Z,101240.25
2022-12-17T19:10:45.333Z,101242.84
2022-12-17T19:13:49.654Z,101242.84
2022-12-17T19:16:54.322Z,101248.88
2022-12-17T19:19:56.527Z,101252.28
2022-12-17T19:22:58.585Z,101257.44
2022-12-17T19:26:13.218Z,101252.25
2022-12-17T19:29:20.111Z,101266.09
2022-12-17T19:32:22.750Z,101256.53
2022-12-17T19:35:25.022Z,101277.25
2022-12-17T19:38:27.476Z,101277.28
2022-12-17T19:41:32.387Z,101282.47
2022-12-17T19:44:34.884Z,101275.50
2022-12-17T19:47:37.252Z,101276.38
2022-12-17T19:50:39.649Z,101281.59
2022-12-17T19:53:42.949Z,101282.41
2022-12-17T19:56:45.619Z,101285.00
2022-12-17T19:59:48.437Z,101296.22
2022-12-17T20:02:50.840Z,101293.56
2022-12-17T20:05:53.441Z,101297.91
2022-12-17T20:08:58.857Z,101300.47
2022-12-17T20:12:01.113Z,101304.78
2022-12-17T20:15:03.786Z,101305.69
2022-12-17T20:18:06.077Z,101308.28
2022-12-17T20:21:08.449Z,101316.09
2022-12-17T20:24:11.737Z,101310.84
2022-12-17T20:27:14.389Z,101311.75
2022-12-17T20:30:16.724Z,101323.88
2022-12-17T20:33:18.870Z,101328.19
2022-12-17T20:36:22.479Z,101331.63
2022-12-17T20:39:28.161Z,101335.03
2022-12-17T20:42:30.533Z,101347.09
2022-12-17T20:45:33.083Z,101347.88
2022-12-17T20:48:37.020Z,101355.63
2022-12-17T20:51:39.812Z,101365.09
2022-12-17T20:54:42.033Z,101364.19
2022-12-17T20:57:44.575Z,101363.28
2022-12-17T21:00:46.774Z,101372.00
2022-12-17T21:03:50.744Z,101372.00
2022-12-17T21:06:53.629Z,101377.19
2022-12-17T21:09:55.779Z,101379.84
2022-12-17T21:13:16.827Z,101380.62
2022-12-17T21:16:25.200Z,101387.53
2022-12-17T21:19:28.170Z,101396.22
2022-12-17T21:22:30.512Z,101396.16
2022-12-17T21:25:32.811Z,101402.19
2022-12-17T21:28:37.339Z,101403.88
2022-12-17T21:31:51.047Z,101399.59
2022-12-17T21:34:53.749Z,101407.38
2022-12-17T21:37:55.929Z,101410.81
2022-12-17T21:41:08.264Z,101413.34
2022-12-17T21:44:12.437Z,101408.12
2022-12-17T21:47:15.101Z,101421.03
2022-12-17T21:50:17.100Z,101420.09
2022-12-17T21:53:19.194Z,101420.13
2022-12-17T21:56:22.497Z,101428.69
2022-12-17T21:59:24.972Z,101439.84
2022-12-17T22:02:27.141Z,101435.50
2022-12-17T22:05:29.624Z,101438.03
2022-12-17T22:08:31.877Z,101442.31
2022-12-17T22:11:35.316Z,101451.78
2022-12-17T22:14:37.708Z,101464.69
2022-12-17T22:17:40.889Z,101458.59
2022-12-17T22:20:42.978Z,101462.91
2022-12-17T22:23:49.391Z,101460.28
2022-12-17T22:26:59.620Z,101465.47
2022-12-17T22:30:20.483Z,101475.75
2022-12-17T22:33:38.503Z,101472.25
2022-12-17T22:40:07.684Z,101472.97
2022-12-17T22:44:30.217Z,101479.91
2022-12-17T22:44:43.046Z,101486.81
2022-12-17T22:46:54.784Z,101484.19
2022-12-17T22:49:56.771Z,101489.22
2022-12-17T22:52:59.461Z,101489.28
2022-12-17T22:56:13.375Z,101483.94
2022-12-17T22:59:21.782Z,101492.53
2022-12-17T23:02:24.060Z,101500.19
2022-12-17T23:05:28.004Z,101503.63
2022-12-17T23:08:30.019Z,101512.22
2022-12-17T23:11:32.037Z,101508.72
2022-12-17T23:14:34.119Z,101508.72
2022-12-17T23:17:36.162Z,101520.88
2022-12-17T23:20:38.233Z,101520.94
2022-12-17T23:23:40.873Z,101524.34
2022-12-17T23:26:43.465Z,101526.94
2022-12-17T23:29:45.556Z,101524.44
2022-12-17T23:32:48.016Z,101539.25
2022-12-17T23:35:50.067Z,101532.34
2022-12-17T23:38:55.229Z,101530.88
2022-12-17T23:41:57.312Z,101528.28
2022-12-17T23:44:59.300Z,101530.16
2022-12-17T23:48:01.365Z,101532.75
2022-12-17T23:51:04.642Z,101542.25
2022-12-17T23:54:07.114Z,101547.41
2022-12-17T23:57:09.390Z,101542.25
